Time;durP1;ratioP1;P1;durP2;ratioP2;P2;SDS_P1;SDS_P2;PMS_P1;PMS_P2;Temp;Humidity;BMP_temperature;BMP_pressure;BME280_temperature;BME280_humidity;BME280_pressure;Samples;Min_cycle;Max_cycle;Signal;HPM_P1;HPM_P2
2021/04/30 00:01:52;;;;;;;16.67;10.93;;;5.40;99.90;;;;;;5012312;28;20199;-74
2021/04/30 00:04:18;;;;;;;15.87;11.37;;;5.40;99.90;;;;;;5015192;28;20301;-74
2021/04/30 00:06:46;;;;;;;13.43;10.83;;;5.40;99.90;;;;;;5018272;28;20289;-74
2021/04/30 00:09:12;;;;;;;18.53;12.03;;;5.40;99.90;;;;;;5016185;28;20205;-74
2021/04/30 00:11:39;;;;;;;16.40;11.37;;;5.40;99.90;;;;;;5015495;28;20291;-73
2021/04/30 00:14:05;;;;;;;15.80;11.00;;;5.60;99.90;;;;;;5010889;28;20778;-74
2021/04/30 00:16:31;;;;;;;13.73;11.37;;;5.60;99.90;;;;;;5027016;28;20340;-74
2021/04/30 00:18:58;;;;;;;15.03;11.50;;;5.60;99.90;;;;;;5031209;28;20318;-74
2021/04/30 00:21:24;;;;;;;15.73;11.27;;;5.50;99.90;;;;;;5018227;28;20293;-74
2021/04/30 00:23:56;;;;;;;15.20;11.50;;;5.40;99.90;;;;;;5035287;28;20240;-74
2021/04/30 00:26:22;;;;;;;16.93;11.50;;;5.40;99.90;;;;;;5035463;28;20241;-74
2021/04/30 00:28:49;;;;;;;20.23;11.83;;;5.50;99.90;;;;;;5034827;28;20255;-74
2021/04/30 00:31:18;;;;;;;16.53;11.37;;;5.50;99.90;;;;;;5032665;28;20234;-74
2021/04/30 00:33:44;;;;;;;13.17;11.03;;;5.50;99.90;;;;;;5014816;28;20243;-74
2021/04/30 00:36:10;;;;;;;18.20;11.97;;;5.50;99.90;;;;;;5015187;28;20211;-73
2021/04/30 00:38:37;;;;;;;13.73;10.93;;;5.50;99.90;;;;;;5015089;28;20644;-74
2021/04/30 00:41:04;;;;;;;14.63;11.80;;;5.50;99.90;;;;;;5020279;28;20280;-74
2021/04/30 00:43:31;;;;;;;16.07;11.70;;;5.50;99.90;;;;;;5029275;28;20229;-74
2021/04/30 00:45:57;;;;;;;16.27;12.33;;;5.50;99.90;;;;;;5014967;28;20757;-74
2021/04/30 00:48:23;;;;;;;18.00;11.43;;;5.40;99.90;;;;;;5028372;28;20292;-74
2021/04/30 00:50:52;;;;;;;18.00;12.57;;;5.30;99.90;;;;;;5031885;28;20982;-74
2021/04/30 00:53:18;;;;;;;17.33;11.50;;;5.30;99.90;;;;;;5027170;28;20197;-74
2021/04/30 00:55:45;;;;;;;15.10;11.80;;;5.20;99.90;;;;;;5019937;28;20284;-74
2021/04/30 00:58:13;;;;;;;16.17;11.77;;;5.10;99.90;;;;;;5020627;28;20308;-74
2021/04/30 01:00:40;;;;;;;17.87;12.47;;;5.00;99.90;;;;;;5022232;28;20290;-73
2021/04/30 01:03:08;;;;;;;14.77;11.70;;;5.00;99.90;;;;;;5015423;28;20288;-74
2021/04/30 01:05:35;;;;;;;21.43;12.97;;;4.90;99.90;;;;;;5015322;28;20202;-74
2021/04/30 01:08:02;;;;;;;19.40;13.37;;;4.90;99.90;;;;;;5015160;28;20205;-74
2021/04/30 01:10:29;;;;;;;16.40;12.67;;;4.90;99.90;;;;;;5023174;28;20291;-74
2021/04/30 01:12:56;;;;;;;18.43;13.50;;;4.90;99.90;;;;;;5025637;28;20644;-73
2021/04/30 01:15:24;;;;;;;16.37;12.60;;;4.90;99.90;;;;;;5024568;28;20311;-73
2021/04/30 01:17:50;;;;;;;15.93;12.87;;;4.80;99.90;;;;;;5014654;28;20257;-73
2021/04/30 01:20:19;;;;;;;19.70;13.80;;;4.70;99.90;;;;;;5014273;28;20251;-74
2021/04/30 01:22:47;;;;;;;18.93;13.47;;;4.70;99.90;;;;;;5020868;28;20235;-74
2021/04/30 01:25:16;;;;;;;20.90;13.80;;;4.70;99.90;;;;;;5017799;28;20613;-74
2021/04/30 01:27:44;;;;;;;19.27;14.97;;;4.60;99.90;;;;;;5014288;28;20634;-74
2021/04/30 01:30:14;;;;;;;20.20;14.47;;;4.50;99.90;;;;;;5028961;28;20204;-74
2021/04/30 01:32:40;;;;;;;22.80;14.87;;;4.50;99.90;;;;;;5013711;28;20201;-74
2021/04/30 01:35:09;;;;;;;19.80;14.37;;;4.50;99.90;;;;;;5024270;28;20233;-74
2021/04/30 01:37:36;;;;;;;21.23;14.57;;;4.50;99.90;;;;;;5033449;28;20223;-74
2021/04/30 01:40:10;;;;;;;21.77;15.00;;;4.50;99.90;;;;;;5027198;28;20289;-73
2021/04/30 01:42:37;;;;;;;20.27;14.70;;;4.40;99.90;;;;;;5014254;28;20251;-74
2021/04/30 01:45:04;;;;;;;20.13;15.83;;;4.40;99.90;;;;;;5013742;28;20292;-74
2021/04/30 01:47:30;;;;;;;22.80;15.17;;;4.30;99.90;;;;;;5017116;28;20283;-73
2021/04/30 01:49:56;;;;;;;20.00;14.73;;;4.30;99.90;;;;;;5030015;28;20224;-73
2021/04/30 01:52:23;;;;;;;20.27;15.53;;;4.20;99.90;;;;;;5029517;28;20247;-74
2021/04/30 01:54:50;;;;;;;24.60;15.37;;;4.10;99.90;;;;;;5007632;28;20307;-74
2021/04/30 01:57:17;;;;;;;21.33;14.97;;;4.00;99.90;;;;;;5008504;28;20232;-74
2021/04/30 01:59:44;;;;;;;23.40;15.77;;;4.00;99.90;;;;;;5033259;28;20278;-74
2021/04/30 02:02:10;;;;;;;19.90;15.57;;;4.00;99.90;;;;;;5030663;28;20209;-73
2021/04/30 02:04:37;;;;;;;23.93;16.50;;;4.00;99.90;;;;;;5014622;28;20211;-74
2021/04/30 02:07:03;;;;;;;24.50;16.27;;;4.00;99.90;;;;;;5033596;28;20200;-73
2021/04/30 02:09:29;;;;;;;24.13;15.57;;;4.00;99.90;;;;;;5029356;28;20239;-73
2021/04/30 02:11:56;;;;;;;21.33;14.57;;;4.00;99.90;;;;;;5032500;28;20279;-73
2021/04/30 02:14:23;;;;;;;23.87;15.87;;;3.90;99.90;;;;;;5017798;28;20268;-74
2021/04/30 02:16:50;;;;;;;27.33;15.87;;;3.80;99.90;;;;;;5018933;28;20323;-74
2021/04/30 02:19:16;;;;;;;23.10;16.13;;;3.70;99.90;;;;;;5033122;28;20727;-73
2021/04/30 02:21:43;;;;;;;24.57;15.77;;;3.60;99.90;;;;;;5023392;28;20290;-74
2021/04/30 02:24:10;;;;;;;22.70;15.43;;;3.50;99.90;;;;;;5032384;28;20293;-74
2021/04/30 02:26:36;;;;;;;23.13;15.83;;;3.40;99.90;;;;;;5032625;28;20719;-74
2021/04/30 02:29:03;;;;;;;22.20;16.33;;;3.50;99.90;;;;;;5016391;28;20551;-74
2021/04/30 02:31:30;;;;;;;23.27;16.17;;;3.40;99.90;;;;;;5012964;28;20236;-74
2021/04/30 02:33:56;;;;;;;26.13;15.83;;;3.30;99.90;;;;;;5012692;28;20298;-74
2021/04/30 02:36:23;;;;;;;21.73;15.73;;;3.20;99.90;;;;;;5017867;28;20210;-74
2021/04/30 02:38:49;;;;;;;22.37;16.40;;;3.20;99.90;;;;;;5020775;28;20316;-73
2021/04/30 02:41:16;;;;;;;24.50;16.40;;;3.10;99.90;;;;;;5019130;28;20751;-73
2021/04/30 02:43:42;;;;;;;23.80;16.30;;;3.10;99.90;;;;;;5026112;28;20230;-73
2021/04/30 02:46:09;;;;;;;24.17;16.73;;;3.10;99.90;;;;;;5020284;28;20286;-74
2021/04/30 02:48:37;;;;;;;24.57;15.87;;;3.20;99.90;;;;;;5012567;28;20289;-74
2021/04/30 02:51:08;;;;;;;23.83;16.10;;;3.10;99.90;;;;;;5015237;28;20214;-73
2021/04/30 02:53:34;;;;;;;22.77;16.03;;;3.10;99.90;;;;;;5021154;28;20238;-73
2021/04/30 02:56:01;;;;;;;24.23;15.53;;;3.10;99.90;;;;;;5028571;28;20792;-74
2021/04/30 02:58:27;;;;;;;20.33;15.60;;;3.10;99.90;;;;;;5014623;28;20257;-74
2021/04/30 03:00:54;;;;;;;23.30;16.53;;;3.00;99.90;;;;;;5019712;28;20319;-73
2021/04/30 03:03:20;;;;;;;25.33;16.70;;;2.90;99.90;;;;;;5006209;28;20295;-74
2021/04/30 03:05:47;;;;;;;24.33;16.63;;;2.90;99.90;;;;;;5018956;28;20243;-73
2021/04/30 03:08:14;;;;;;;22.60;15.77;;;2.90;99.90;;;;;;5021116;28;20205;-73
2021/04/30 03:10:40;;;;;;;25.73;16.53;;;2.80;99.90;;;;;;5015195;28;20291;-73
2021/04/30 03:13:06;;;;;;;23.80;16.40;;;2.80;99.90;;;;;;5026617;28;20254;-74
2021/04/30 03:15:33;;;;;;;27.00;16.50;;;2.80;99.90;;;;;;5032010;28;20326;-73
2021/04/30 03:17:59;;;;;;;24.23;15.80;;;2.70;99.90;;;;;;5019342;28;20305;-73
2021/04/30 03:20:26;;;;;;;26.23;16.10;;;2.60;99.90;;;;;;5021238;28;20210;-73
2021/04/30 03:22:53;;;;;;;21.50;15.57;;;2.60;99.90;;;;;;5024769;28;20674;-73
2021/04/30 03:25:19;;;;;;;22.33;15.10;;;2.60;99.90;;;;;;5013454;28;20291;-74
2021/04/30 03:27:46;;;;;;;24.33;16.50;;;2.50;99.90;;;;;;5021706;28;20306;-73
2021/04/30 03:30:14;;;;;;;23.40;16.50;;;2.50;99.90;;;;;;5012759;28;20231;-73
2021/04/30 03:32:41;;;;;;;24.27;16.17;;;2.50;99.90;;;;;;5012079;28;20242;-74
2021/04/30 03:35:10;;;;;;;24.70;16.70;;;2.50;99.90;;;;;;5012291;28;20211;-73
2021/04/30 03:37:36;;;;;;;25.10;16.30;;;2.40;99.90;;;;;;5021747;28;20199;-73
2021/04/30 03:40:04;;;;;;;28.27;17.63;;;2.50;99.90;;;;;;5032144;28;20289;-73
2021/04/30 03:42:31;;;;;;;22.93;16.70;;;2.50;99.90;;;;;;5025260;28;20293;-74
2021/04/30 03:44:57;;;;;;;24.90;16.23;;;2.50;99.90;;;;;;5013511;28;20201;-73
2021/04/30 03:47:23;;;;;;;23.00;16.07;;;2.40;99.90;;;;;;5031924;28;20298;-74
2021/04/30 03:49:50;;;;;;;26.77;16.17;;;2.40;99.90;;;;;;5028673;28;20237;-73
2021/04/30 03:52:16;;;;;;;26.73;16.67;;;2.30;99.90;;;;;;5019574;28;20286;-73
2021/04/30 03:54:42;;;;;;;21.90;15.80;;;2.30;99.90;;;;;;5014246;28;20675;-73
2021/04/30 03:57:10;;;;;;;23.53;15.83;;;2.30;99.90;;;;;;5018275;28;20687;-73
2021/04/30 03:59:37;;;;;;;28.20;17.37;;;2.30;99.90;;;;;;5021590;28;20849;-73
2021/04/30 04:02:04;;;;;;;23.53;15.87;;;2.30;99.90;;;;;;5016994;28;20737;-73
2021/04/30 04:04:30;;;;;;;24.60;16.80;;;2.20;99.90;;;;;;5031859;28;20292;-73
2021/04/30 04:06:57;;;;;;;26.47;16.60;;;2.30;99.90;;;;;;5031474;28;20297;-73
2021/04/30 04:09:23;;;;;;;22.53;16.63;;;2.30;99.90;;;;;;5027103;28;20198;-73
2021/04/30 04:11:49;;;;;;;26.30;16.80;;;2.20;99.90;;;;;;5029554;28;20342;-73
2021/04/30 04:14:16;;;;;;;26.77;16.20;;;2.30;99.90;;;;;;5020666;28;20223;-73
2021/04/30 04:16:43;;;;;;;26.10;16.07;;;2.40;99.90;;;;;;5027461;28;20319;-73
2021/04/30 04:19:09;;;;;;;24.97;16.20;;;2.30;99.90;;;;;;5022090;28;20317;-73
2021/04/30 04:21:36;;;;;;;23.87;15.60;;;2.30;99.90;;;;;;5016259;28;20210;-73
2021/04/30 04:24:02;;;;;;;22.53;16.37;;;2.30;99.90;;;;;;5011163;28;20299;-73
2021/04/30 04:26:29;;;;;;;22.40;14.87;;;2.30;99.90;;;;;;5011692;28;20683;-74
2021/04/30 04:28:55;;;;;;;24.73;15.97;;;2.20;99.90;;;;;;5014800;28;20239;-73
2021/04/30 04:31:22;;;;;;;22.90;15.23;;;2.10;99.90;;;;;;5030736;28;20237;-73
2021/04/30 04:33:49;;;;;;;21.10;14.87;;;2.10;99.90;;;;;;5023757;28;20339;-73
2021/04/30 04:36:15;;;;;;;21.87;15.20;;;2.10;99.90;;;;;;5031695;28;20200;-73
2021/04/30 04:38:41;;;;;;;23.53;14.97;;;2.00;99.90;;;;;;5017740;28;20317;-73
2021/04/30 04:41:08;;;;;;;23.20;14.93;;;2.00;99.90;;;;;;5011232;28;20336;-73
2021/04/30 04:43:34;;;;;;;22.77;15.47;;;2.10;99.90;;;;;;5011880;28;20297;-73
2021/04/30 04:46:00;;;;;;;23.23;16.30;;;2.00;99.90;;;;;;5014397;28;20298;-73
2021/04/30 04:48:28;;;;;;;26.50;16.57;;;2.00;99.90;;;;;;5030282;28;20292;-73
2021/04/30 04:50:54;;;;;;;24.37;17.17;;;2.10;99.90;;;;;;5013851;28;20297;-73
2021/04/30 04:53:21;;;;;;;23.93;16.00;;;2.10;99.90;;;;;;5011798;28;20308;-73
2021/04/30 04:55:47;;;;;;;31.90;16.53;;;2.00;99.90;;;;;;5029268;28;20232;-73
2021/04/30 04:58:13;;;;;;;24.63;16.47;;;2.00;99.90;;;;;;5018499;28;20269;-73
2021/04/30 05:00:40;;;;;;;30.00;16.10;;;2.10;99.90;;;;;;5031185;28;20234;-73
2021/04/30 05:03:06;;;;;;;28.97;16.33;;;2.10;99.90;;;;;;5021447;28;20285;-73
2021/04/30 05:05:33;;;;;;;26.63;15.77;;;2.10;99.90;;;;;;5012322;28;20237;-74
2021/04/30 05:08:00;;;;;;;24.33;15.27;;;2.20;99.90;;;;;;5028364;28;20332;-73
2021/04/30 05:10:26;;;;;;;24.30;15.63;;;2.20;99.90;;;;;;5022564;28;20689;-73
2021/04/30 05:12:52;;;;;;;24.27;16.13;;;2.20;99.90;;;;;;5019082;28;20743;-73
2021/04/30 05:15:20;;;;;;;24.57;15.80;;;2.20;99.90;;;;;;5031781;28;20231;-74
2021/04/30 05:17:46;;;;;;;24.50;16.37;;;2.20;99.90;;;;;;5034753;28;20249;-72
2021/04/30 05:20:13;;;;;;;25.17;16.93;;;2.20;99.90;;;;;;5022497;28;20242;-74
2021/04/30 05:22:42;;;;;;;25.37;16.00;;;2.40;99.90;;;;;;5025452;28;20206;-74
2021/04/30 05:25:11;;;;;;;27.83;16.07;;;2.50;99.90;;;;;;5034627;28;20202;-74
2021/04/30 05:27:40;;;;;;;25.20;17.07;;;2.70;99.90;;;;;;5022483;28;20227;-73
2021/04/30 05:30:08;;;;;;;27.40;16.83;;;2.80;99.90;;;;;;5020094;28;20198;-73
2021/04/30 05:32:34;;;;;;;23.67;16.07;;;3.10;99.90;;;;;;5020720;28;20242;-73
2021/04/30 05:35:03;;;;;;;23.83;15.30;;;3.30;99.90;;;;;;5014242;28;20700;-74
2021/04/30 05:37:29;;;;;;;22.33;15.33;;;3.60;99.90;;;;;;5010917;28;20208;-73
2021/04/30 05:39:57;;;;;;;21.57;15.37;;;3.90;99.90;;;;;;5013640;28;20229;-73
2021/04/30 05:42:24;;;;;;;19.63;14.37;;;4.20;99.90;;;;;;5015352;28;20202;-73
2021/04/30 05:44:52;;;;;;;24.00;14.10;;;4.30;99.90;;;;;;5025789;28;20295;-73
2021/04/30 05:47:19;;;;;;;20.77;13.63;;;4.50;99.90;;;;;;5033744;28;20289;-73
2021/04/30 05:49:45;;;;;;;19.20;14.50;;;4.90;99.90;;;;;;5027296;28;20199;-74
2021/04/30 05:52:11;;;;;;;20.67;14.40;;;5.50;99.90;;;;;;5023983;28;20298;-73
2021/04/30 05:54:38;;;;;;;19.43;13.40;;;5.80;99.90;;;;;;5011873;28;20296;-73
2021/04/30 05:57:05;;;;;;;18.23;13.07;;;6.30;99.90;;;;;;5006326;28;20299;-73
2021/04/30 05:59:32;;;;;;;15.67;12.90;;;6.70;99.90;;;;;;5013611;28;20312;-73
2021/04/30 06:01:58;;;;;;;18.87;12.97;;;7.00;99.90;;;;;;5012766;28;20286;-73
2021/04/30 06:04:26;;;;;;;20.77;13.90;;;7.40;99.90;;;;;;5015086;28;20570;-74
2021/04/30 06:06:53;;;;;;;19.50;12.93;;;8.10;99.90;;;;;;5012375;28;20228;-74
2021/04/30 06:09:20;;;;;;;17.13;12.90;;;8.90;99.90;;;;;;5014136;28;20231;-74
2021/04/30 06:11:48;;;;;;;16.93;13.00;;;9.40;99.90;;;;;;5010799;28;20197;-74
2021/04/30 06:14:15;;;;;;;15.23;12.00;;;10.00;99.90;;;;;;5015387;28;20291;-73
2021/04/30 06:16:42;;;;;;;18.03;12.50;;;10.20;99.90;;;;;;5012549;28;20316;-72
2021/04/30 06:19:08;;;;;;;16.60;11.47;;;10.80;99.90;;;;;;5015682;28;20240;-74
2021/04/30 06:21:35;;;;;;;12.80;11.17;;;10.30;99.90;;;;;;5014639;28;20689;-75
2021/04/30 06:24:01;;;;;;;14.80;11.77;;;10.50;99.90;;;;;;5014345;28;20237;-74
2021/04/30 06:26:28;;;;;;;14.97;11.70;;;10.50;99.90;;;;;;5012368;28;20204;-72
2021/04/30 06:28:55;;;;;;;16.23;11.40;;;10.50;99.90;;;;;;5012797;28;20284;-74
2021/04/30 06:31:23;;;;;;;13.47;11.43;;;11.00;99.90;;;;;;5020036;28;20216;-75
2021/04/30 06:33:51;;;;;;;14.73;11.30;;;11.60;99.90;;;;;;5012607;28;20244;-72
2021/04/30 06:36:18;;;;;;;13.77;11.43;;;11.40;99.90;;;;;;5013258;28;20196;-72
2021/04/30 06:38:45;;;;;;;15.97;11.57;;;11.80;99.90;;;;;;5010422;28;20225;-72
2021/04/30 06:41:11;;;;;;;13.40;10.93;;;11.50;99.90;;;;;;5018758;28;20618;-72
2021/04/30 06:43:37;;;;;;;14.37;11.30;;;12.10;99.90;;;;;;5017808;28;20223;-72
2021/04/30 06:46:04;;;;;;;15.57;11.73;;;11.30;99.90;;;;;;5013538;28;20235;-75
2021/04/30 06:48:31;;;;;;;14.90;10.30;;;12.00;99.90;;;;;;5017738;28;20284;-74
2021/04/30 06:50:58;;;;;;;13.23;11.13;;;12.20;99.90;;;;;;5022541;28;20196;-73
2021/04/30 06:53:24;;;;;;;12.00;10.50;;;12.50;99.90;;;;;;5015536;28;20305;-74
2021/04/30 06:55:51;;;;;;;11.73;10.43;;;12.60;99.90;;;;;;5014560;28;20255;-74
2021/04/30 06:58:17;;;;;;;14.07;11.27;;;13.30;99.90;;;;;;5012342;28;20220;-74
2021/04/30 07:00:44;;;;;;;13.40;11.03;;;13.00;99.90;;;;;;5020580;28;20288;-74
2021/04/30 07:03:10;;;;;;;12.13;10.83;;;13.10;99.90;;;;;;5012759;28;20203;-75
2021/04/30 07:05:37;;;;;;;13.57;11.50;;;13.50;99.90;;;;;;5016009;28;20654;-74
2021/04/30 07:08:04;;;;;;;12.57;11.10;;;13.30;99.90;;;;;;5014329;28;20296;-74
2021/04/30 07:10:31;;;;;;;12.97;10.27;;;13.50;99.90;;;;;;4995828;28;20288;-74
2021/04/30 07:12:58;;;;;;;13.23;11.30;;;13.60;99.90;;;;;;5012851;28;20245;-74
2021/04/30 07:15:24;;;;;;;13.90;10.70;;;13.80;99.90;;;;;;5011150;28;20268;-75
2021/04/30 07:17:51;;;;;;;13.20;10.68;;;14.30;99.90;;;;;;5012580;28;20335;-72
2021/04/30 07:20:17;;;;;;;12.15;10.77;;;14.30;99.90;;;;;;5011519;28;20235;-74
2021/04/30 07:22:45;;;;;;;13.10;10.15;;;14.30;99.90;;;;;;5011635;28;20255;-74
2021/04/30 07:25:11;;;;;;;11.13;9.75;;;14.10;99.90;;;;;;5016325;28;20307;-74
2021/04/30 07:27:38;;;;;;;12.68;10.23;;;14.80;99.90;;;;;;5018477;28;20206;-74
2021/04/30 07:30:05;;;;;;;24.00;12.13;;;14.70;99.90;;;;;;5012347;28;20366;-74
2021/04/30 07:32:32;;;;;;;14.75;10.82;;;14.40;99.90;;;;;;5012294;28;20571;-74
2021/04/30 07:34:58;;;;;;;14.07;10.55;;;14.10;99.90;;;;;;5013551;28;20284;-74
2021/04/30 07:37:25;;;;;;;11.23;10.02;;;13.50;99.90;;;;;;5013264;28;20287;-74
2021/04/30 07:39:53;;;;;;;13.13;10.20;;;13.70;99.90;;;;;;5011402;28;20217;-74
2021/04/30 07:42:19;;;;;;;13.88;9.77;;;14.70;99.90;;;;;;5012780;28;20283;-73
2021/04/30 07:44:46;;;;;;;11.93;9.65;;;14.90;99.90;;;;;;5015932;28;20200;-73
2021/04/30 07:47:13;;;;;;;13.02;9.48;;;14.70;99.90;;;;;;5011829;28;20751;-73
2021/04/30 07:49:41;;;;;;;15.65;10.73;;;14.70;99.90;;;;;;5015359;28;20193;-73
2021/04/30 07:52:09;;;;;;;12.25;9.35;;;14.20;99.90;;;;;;5011843;28;20201;-73
2021/04/30 07:54:35;;;;;;;11.07;9.87;;;13.90;99.90;;;;;;5011441;28;20193;-74
2021/04/30 07:57:05;;;;;;;13.57;9.73;;;13.50;99.90;;;;;;5014618;28;20246;-74
2021/04/30 07:59:31;;;;;;;13.55;10.00;;;14.40;99.90;;;;;;5013989;28;20228;-74
2021/04/30 08:01:58;;;;;;;10.83;9.73;;;14.20;99.90;;;;;;5010282;28;20193;-75
2021/04/30 08:04:25;;;;;;;12.03;9.93;;;13.80;99.90;;;;;;5014943;28;20649;-74
2021/04/30 08:06:51;;;;;;;10.63;9.27;;;14.10;99.90;;;;;;5013897;28;20293;-74
2021/04/30 08:09:17;;;;;;;10.23;9.13;;;14.70;99.90;;;;;;5010711;28;20197;-74
2021/04/30 08:11:44;;;;;;;12.27;9.33;;;14.40;99.90;;;;;;5012229;28;20744;-75
2021/04/30 08:14:11;;;;;;;10.83;9.73;;;15.20;99.90;;;;;;5010224;28;20309;-75
2021/04/30 08:16:38;;;;;;;11.87;10.00;;;14.90;99.90;;;;;;5011890;28;20373;-74
2021/04/30 08:19:05;;;;;;;11.50;9.40;;;14.80;99.90;;;;;;5010868;28;20320;-75
2021/04/30 08:21:31;;;;;;;15.50;10.23;;;15.10;99.90;;;;;;5012131;28;20597;-75
2021/04/30 08:23:58;;;;;;;12.40;9.70;;;15.00;99.90;;;;;;5016157;28;20231;-74
2021/04/30 08:26:25;;;;;;;11.13;9.50;;;15.00;99.90;;;;;;5012060;28;20297;-75
2021/04/30 08:28:52;;;;;;;12.75;9.27;;;16.10;99.90;;;;;;5015057;28;20197;-75
2021/04/30 08:31:21;;;;;;;11.00;8.97;;;16.70;99.90;;;;;;5011630;28;20211;-74
2021/04/30 08:33:48;;;;;;;11.10;9.25;;;16.60;99.90;;;;;;5012819;28;20207;-75
2021/04/30 08:36:14;;;;;;;10.02;9.02;;;17.30;99.90;;;;;;4997025;28;20296;-75
2021/04/30 08:38:41;;;;;;;11.60;8.85;;;16.90;99.90;;;;;;5012251;28;20316;-75
2021/04/30 08:41:08;;;;;;;10.63;8.52;;;16.50;99.90;;;;;;5010079;28;20244;-75
2021/04/30 08:43:36;;;;;;;10.77;8.65;;;17.70;99.90;;;;;;5015721;28;20201;-75
2021/04/30 08:46:04;;;;;;;14.07;8.73;;;16.90;99.90;;;;;;5013468;28;20229;-75
2021/04/30 08:48:33;;;;;;;9.15;7.90;;;16.70;99.90;;;;;;5014916;28;20663;-75
2021/04/30 08:51:00;;;;;;;11.35;8.70;;;17.20;99.90;;;;;;5022111;28;20295;-75
2021/04/30 08:53:26;;;;;;;9.75;8.48;;;16.40;99.90;;;;;;5017491;28;20631;-75
2021/04/30 08:55:54;;;;;;;9.32;8.32;;;16.70;99.90;;;;;;5013950;28;20284;-75
2021/04/30 08:58:25;;;;;;;7.85;6.95;;;17.10;99.90;;;;;;5013579;28;20290;-75
2021/04/30 09:00:52;;;;;;;8.20;7.40;;;17.10;99.90;;;;;;5012750;28;20201;-74
2021/04/30 09:03:19;;;;;;;8.52;7.60;;;17.10;99.90;;;;;;5017769;28;20275;-75
2021/04/30 09:05:48;;;;;;;7.85;7.05;;;17.30;99.90;;;;;;5014176;28;20212;-75
2021/04/30 09:08:16;;;;;;;9.80;7.20;;;18.00;99.30;;;;;;5017580;28;20278;-75
2021/04/30 09:10:47;;;;;;;11.80;6.75;;;17.90;97.20;;;;;;5014858;28;20200;-75
2021/04/30 09:13:16;;;;;;;7.82;6.93;;;18.30;97.20;;;;;;5013226;28;20227;-75
2021/04/30 09:15:44;;;;;;;7.28;5.78;;;19.10;95.60;;;;;;5014543;28;20243;-75
2021/04/30 09:18:15;;;;;;;7.60;6.20;;;19.80;94.40;;;;;;5013903;28;20673;-75
2021/04/30 09:20:44;;;;;;;7.93;5.90;;;19.80;95.20;;;;;;5014015;28;20232;-74
2021/04/30 09:23:30;;;;;;;8.02;6.35;;;20.60;92.00;;;;;;5013466;28;20574;-75
2021/04/30 09:25:57;;;;;;;8.23;6.00;;;18.90;91.10;;;;;;5017501;28;20231;-75
2021/04/30 09:28:23;;;;;;;9.25;5.90;;;18.60;93.90;;;;;;5015895;28;20746;-74
2021/04/30 09:30:51;;;;;;;6.30;5.70;;;18.70;92.00;;;;;;5017043;28;20289;-75
2021/04/30 09:33:19;;;;;;;9.38;5.78;;;18.50;93.00;;;;;;5016792;28;20220;-75
2021/04/30 09:35:48;;;;;;;6.97;5.60;;;19.80;90.90;;;;;;5013099;28;20562;-75
2021/04/30 09:38:22;;;;;;;7.32;5.63;;;19.80;90.00;;;;;;5015166;28;20205;-75
2021/04/30 09:40:52;;;;;;;6.68;5.97;;;21.00;86.80;;;;;;5014197;28;20256;-75
2021/04/30 09:43:19;;;;;;;7.10;5.57;;;19.70;91.20;;;;;;5014732;28;20283;-75
2021/04/30 09:45:46;;;;;;;7.90;6.00;;;19.60;91.00;;;;;;5013366;28;20326;-75
2021/04/30 09:48:14;;;;;;;10.32;5.40;;;19.80;90.80;;;;;;5015508;28;20658;-75
2021/04/30 09:50:42;;;;;;;6.55;5.85;;;20.40;88.40;;;;;;5012625;28;20292;-75
2021/04/30 09:53:10;;;;;;;6.53;5.68;;;20.30;83.80;;;;;;5012485;28;20264;-75
2021/04/30 09:55:42;;;;;;;9.15;6.20;;;18.50;86.70;;;;;;5014423;28;20204;-75
2021/04/30 09:58:18;;;;;;;8.48;4.90;;;17.60;90.10;;;;;;5013789;28;20280;-75
2021/04/30 10:00:46;;;;;;;8.10;5.32;;;18.50;90.70;;;;;;5018666;28;20220;-75
2021/04/30 10:03:14;;;;;;;13.68;5.55;;;18.70;90.10;;;;;;5015936;28;20335;-75
2021/04/30 10:06:03;;;;;;;9.13;5.28;;;19.80;89.00;;;;;;5014435;28;20284;-74
2021/04/30 10:08:31;;;;;;;5.88;5.28;;;20.40;88.80;;;;;;5011954;28;20284;-75
2021/04/30 10:11:01;;;;;;;6.47;5.50;;;21.30;88.50;;;;;;5011208;28;20658;-75
2021/04/30 10:13:29;;;;;;;7.47;5.40;;;18.60;81.00;;;;;;5013219;28;20346;-75
2021/04/30 10:15:57;;;;;;;6.53;5.60;;;17.30;86.40;;;;;;5016621;28;20636;-75
2021/04/30 10:18:25;;;;;;;7.32;5.43;;;17.40;84.20;;;;;;5015225;28;20213;-75
2021/04/30 10:20:52;;;;;;;6.50;5.78;;;17.80;87.40;;;;;;5017050;28;20247;-75
2021/04/30 10:23:20;;;;;;;7.70;5.68;;;18.40;85.90;;;;;;5013432;28;20821;-75
2021/04/30 10:25:48;;;;;;;6.30;5.60;;;19.00;87.60;;;;;;5014307;28;20209;-75
2021/04/30 10:28:18;;;;;;;7.60;5.97;;;18.20;87.20;;;;;;5015965;28;20689;-75
2021/04/30 10:30:53;;;;;;;7.93;5.80;;;16.90;88.30;;;;;;5013041;28;20205;-75
2021/04/30 10:33:25;;;;;;;6.90;5.38;;;17.50;87.10;;;;;;5013884;28;20286;-75
2021/04/30 10:35:57;;;;;;;6.72;5.13;;;18.10;90.20;;;;;;5001034;28;20201;-76
2021/04/30 10:38:28;;;;;;;7.15;5.72;;;19.20;90.30;;;;;;5014702;28;20834;-74
2021/04/30 10:41:00;;;;;;;6.15;5.40;;;19.70;88.30;;;;;;5020367;28;20296;-75
2021/04/30 10:43:27;;;;;;;6.65;5.70;;;20.90;86.10;;;;;;5015244;28;20229;-75
2021/04/30 10:46:04;;;;;;;6.82;5.90;;;21.50;83.80;;;;;;5016081;28;20280;-75
2021/04/30 10:48:31;;;;;;;6.15;5.35;;;20.00;78.90;;;;;;5016866;28;20271;-75
2021/04/30 10:51:13;;;;;;;7.82;4.93;;;20.90;84.50;;;;;;5020432;28;20205;-75
2021/04/30 10:53:41;;;;;;;5.75;5.15;;;20.90;85.00;;;;;;5018079;28;20209;-75
2021/04/30 10:56:31;;;;;;;8.18;5.00;;;21.20;81.80;;;;;;5016821;28;20213;-75
2021/04/30 10:58:58;;;;;;;6.32;5.45;;;21.40;79.30;;;;;;5017994;28;20224;-75
2021/04/30 11:01:30;;;;;;;5.57;5.07;;;20.40;77.90;;;;;;5013195;28;20731;-76
2021/04/30 11:04:17;;;;;;;5.53;5.03;;;21.30;80.00;;;;;;5013352;28;20309;-75
2021/04/30 11:06:46;;;;;;;6.05;5.22;;;20.50;76.50;;;;;;5020192;28;20297;-75
2021/04/30 11:09:15;;;;;;;9.02;5.63;;;20.30;80.80;;;;;;5019831;28;20197;-75
2021/04/30 11:11:43;;;;;;;8.10;5.53;;;20.50;80.80;;;;;;5026248;28;20215;-75
2021/04/30 11:14:35;;;;;;;9.63;5.55;;;21.00;78.10;;;;;;5017256;28;20256;-75
2021/04/30 11:17:04;;;;;;;6.10;5.50;;;20.70;81.90;;;;;;5011209;28;20224;-75
2021/04/30 11:19:32;;;;;;;7.07;5.00;;;20.10;77.80;;;;;;5013609;28;20223;-75
2021/04/30 11:22:11;;;;;;;6.72;5.80;;;21.10;78.10;;;;;;5014523;28;20279;-75
2021/04/30 11:24:44;;;;;;;6.35;5.60;;;20.60;77.10;;;;;;5021804;28;20205;-74
2021/04/30 11:27:35;;;;;;;7.32;5.32;;;21.80;78.90;;;;;;5025636;28;20208;-75
2021/04/30 11:30:24;;;;;;;6.00;5.40;;;22.00;75.20;;;;;;5022075;28;20200;-75
2021/04/30 11:33:00;;;;;;;5.35;4.70;;;21.90;75.40;;;;;;5010615;28;20281;-75
2021/04/30 11:35:29;;;;;;;7.50;5.85;;;22.60;74.70;;;;;;5017098;28;20691;-75
2021/04/30 11:37:56;;;;;;;6.13;5.53;;;21.30;74.90;;;;;;5018296;28;20218;-75
2021/04/30 11:40:24;;;;;;;9.32;5.72;;;21.30;75.70;;;;;;5012253;28;20310;-75
2021/04/30 11:43:08;;;;;;;6.50;5.72;;;20.90;78.40;;;;;;5011018;28;20201;-74
2021/04/30 11:45:38;;;;;;;6.32;5.72;;;19.90;74.40;;;;;;5010722;28;20212;-74
2021/04/30 11:48:08;;;;;;;5.68;4.78;;;20.80;77.50;;;;;;5014588;28;20220;-74
2021/04/30 11:50:34;;;;;;;7.10;5.30;;;21.40;76.50;;;;;;5011164;28;20193;-75
2021/04/30 11:53:13;;;;;;;5.70;5.20;;;21.70;72.40;;;;;;5012888;28;20228;-75
2021/04/30 11:55:41;;;;;;;6.85;4.57;;;21.50;71.80;;;;;;5015433;28;20192;-74
2021/04/30 11:58:08;;;;;;;6.00;5.40;;;21.20;71.40;;;;;;5013527;28;20213;-74
2021/04/30 12:00:34;;;;;;;9.30;5.03;;;20.70;70.40;;;;;;5013165;28;20223;-74
2021/04/30 12:03:03;;;;;;;7.40;5.20;;;21.00;72.60;;;;;;5010250;28;20228;-74
2021/04/30 12:05:31;;;;;;;7.18;5.13;;;22.30;68.90;;;;;;5007657;28;20371;-74
2021/04/30 12:07:58;;;;;;;5.78;4.88;;;21.20;75.10;;;;;;5013947;28;20201;-75
2021/04/30 12:10:27;;;;;;;5.50;4.53;;;21.50;74.80;;;;;;5012330;28;20236;-74
2021/04/30 12:12:54;;;;;;;4.97;4.30;;;21.50;70.80;;;;;;5010776;28;20225;-75
2021/04/30 12:15:32;;;;;;;4.85;3.92;;;21.50;72.50;;;;;;5013520;28;20676;-75
2021/04/30 12:17:59;;;;;;;4.63;4.05;;;21.30;66.60;;;;;;5013909;28;20614;-74
2021/04/30 12:20:27;;;;;;;6.93;3.40;;;21.40;64.40;;;;;;5014073;28;20228;-74
2021/04/30 12:22:57;;;;;;;5.18;3.60;;;20.70;56.90;;;;;;4996262;28;20298;-74
2021/04/30 12:25:35;;;;;;;4.35;3.85;;;20.70;66.10;;;;;;5010398;28;20200;-74
2021/04/30 12:28:22;;;;;;;4.65;4.25;;;21.80;66.50;;;;;;5010614;28;20697;-74
2021/04/30 12:30:55;;;;;;;5.93;4.90;;;22.20;65.40;;;;;;5012968;28;20284;-74
2021/04/30 12:33:27;;;;;;;5.38;4.88;;;22.10;69.90;;;;;;5017808;28;20295;-74
2021/04/30 12:35:55;;;;;;;5.10;4.60;;;22.80;65.30;;;;;;4990845;28;20276;-75
2021/04/30 12:38:24;;;;;;;5.20;3.95;;;21.50;64.50;;;;;;5012426;28;20224;-75
2021/04/30 12:40:50;;;;;;;5.95;4.95;;;21.40;68.60;;;;;;5013012;28;20236;-74
2021/04/30 12:43:24;;;;;;;4.85;4.35;;;20.70;64.80;;;;;;5009793;28;20254;-75